sensor_id;sensor_type;location;lat;lon;timestamp;pressure;altitude;pressure_sealevel;temperature;humidity
20228;BME280;12195;55.790;37.572;2023-02-04T00:01:01;99234.08;;;2.42;72.97
20228;BME280;12195;55.790;37.572;2023-02-04T00:03:32;99236.76;;;2.39;72.99
20228;BME280;12195;55.790;37.572;2023-02-04T00:06:04;99240.99;;;2.41;72.91
20228;BME280;12195;55.790;37.572;2023-02-04T00:08:37;99240.20;;;2.39;73.13
20228;BME280;12195;55.790;37.572;2023-02-04T00:11:09;99243.55;;;2.43;73.19
20228;BME280;12195;55.790;37.572;2023-02-04T00:13:41;99240.99;;;2.41;72.90
20228;BME280;12195;55.790;37.572;2023-02-04T00:16:13;99241.85;;;2.42;73.01
20228;BME280;12195;55.790;37.572;2023-02-04T00:18:45;99244.45;;;2.42;73.18
20228;BME280;12195;55.790;37.572;2023-02-04T00:21:17;99240.13;;;2.42;72.96
20228;BME280;12195;55.790;37.572;2023-02-04T00:23:49;99236.67;;;2.42;72.91
20228;BME280;12195;55.790;37.572;2023-02-04T00:26:21;99240.99;;;2.41;72.80
20228;BME280;12195;55.790;37.572;2023-02-04T00:28:54;99249.66;;;2.40;72.78
20228;BME280;12195;55.790;37.572;2023-02-04T00:31:26;99252.22;;;2.42;72.53
20228;BME280;12195;55.790;37.572;2023-02-04T00:33:58;99251.36;;;2.41;72.68
20228;BME280;12195;55.790;37.572;2023-02-04T00:36:32;99261.72;;;2.41;72.52
20228;BME280;12195;55.790;37.572;2023-02-04T00:39:04;99263.36;;;2.44;72.16
20228;BME280;12195;55.790;37.572;2023-02-04T00:41:36;99259.16;;;2.40;72.17
20228;BME280;12195;55.790;37.572;2023-02-04T00:44:10;99260.03;;;2.40;72.30
20228;BME280;12195;55.790;37.572;2023-02-04T00:46:43;99259.98;;;2.42;72.15
20228;BME280;12195;55.790;37.572;2023-02-04T00:49:14;99267.24;;;2.58;72.98
20228;BME280;12195;55.790;37.572;2023-02-04T00:51:46;99259.95;;;2.43;72.14
20228;BME280;12195;55.790;37.572;2023-02-04T00:54:19;99266.89;;;2.41;71.92
20228;BME280;12195;55.790;37.572;2023-02-04T00:56:51;99264.34;;;2.40;71.89
20228;BME280;12195;55.790;37.572;2023-02-04T00:59:24;99276.43;;;2.41;71.78
20228;BME280;12195;55.790;37.572;2023-02-04T01:01:56;99275.53;;;2.42;71.87
20228;BME280;12195;55.790;37.572;2023-02-04T01:04:28;99278.12;;;2.42;71.62
20228;BME280;12195;55.790;37.572;2023-02-04T01:07:01;99275.48;;;2.43;71.60
20228;BME280;12195;55.790;37.572;2023-02-04T01:09:33;99272.90;;;2.43;71.66
20228;BME280;12195;55.790;37.572;2023-02-04T01:12:06;99272.90;;;2.43;71.44
20228;BME280;12195;55.790;37.572;2023-02-04T01:14:38;99274.63;;;2.43;71.70
20228;BME280;12195;55.790;37.572;2023-02-04T01:17:10;99273.73;;;2.44;71.52
20228;BME280;12195;55.790;37.572;2023-02-04T01:19:42;99277.14;;;2.46;71.59
20228;BME280;12195;55.790;37.572;2023-02-04T01:22:14;99274.55;;;2.46;71.44
20228;BME280;12195;55.790;37.572;2023-02-04T01:24:47;99273.73;;;2.44;71.24
20228;BME280;12195;55.790;37.572;2023-02-04T01:27:38;99280.75;;;2.40;71.21
20228;BME280;12195;55.790;37.572;2023-02-04T01:30:12;99280.79;;;2.39;71.34
20228;BME280;12195;55.790;37.572;2023-02-04T01:32:44;99281.69;;;2.38;71.37
20228;BME280;12195;55.790;37.572;2023-02-04T01:35:17;99282.55;;;2.38;71.54
20228;BME280;12195;55.790;37.572;2023-02-04T01:37:49;99288.64;;;2.36;71.44
20228;BME280;12195;55.790;37.572;2023-02-04T01:40:21;99283.42;;;2.37;71.61
20228;BME280;12195;55.790;37.572;2023-02-04T01:42:53;99294.60;;;2.39;71.65
20228;BME280;12195;55.790;37.572;2023-02-04T01:45:26;99290.17;;;2.43;71.67
20228;BME280;12195;55.790;37.572;2023-02-04T01:48:04;99297.90;;;2.44;71.54
20228;BME280;12195;55.790;37.572;2023-02-04T01:50:38;99293.58;;;2.45;71.50
20228;BME280;12195;55.790;37.572;2023-02-04T01:53:11;99305.55;;;2.49;71.51
20228;BME280;12195;55.790;37.572;2023-02-04T01:55:43;99308.10;;;2.50;71.37
20228;BME280;12195;55.790;37.572;2023-02-04T01:58:15;99308.10;;;2.50;71.34
20228;BME280;12195;55.790;37.572;2023-02-04T02:00:48;99303.75;;;2.51;71.24
20228;BME280;12195;55.790;37.572;2023-02-04T02:03:20;99316.74;;;2.49;71.22
20228;BME280;12195;55.790;37.572;2023-02-04T02:05:53;99320.23;;;2.48;71.43
20228;BME280;12195;55.790;37.572;2023-02-04T02:08:28;99321.96;;;2.48;71.42
20228;BME280;12195;55.790;37.572;2023-02-04T02:10:59;99318.62;;;2.44;71.28
20228;BME280;12195;55.790;37.572;2023-02-04T02:13:32;99320.42;;;2.42;71.49
20228;BME280;12195;55.790;37.572;2023-02-04T02:16:04;99331.69;;;2.40;71.70
20228;BME280;12195;55.790;37.572;2023-02-04T02:18:36;99333.45;;;2.39;71.91
20228;BME280;12195;55.790;37.572;2023-02-04T02:21:11;99323.09;;;2.39;72.01
20228;BME280;12195;55.790;37.572;2023-02-04T02:23:54;99340.28;;;2.42;71.90
20228;BME280;12195;55.790;37.572;2023-02-04T02:26:31;99340.28;;;2.42;71.84
20228;BME280;12195;55.790;37.572;2023-02-04T02:29:03;99342.84;;;2.43;71.99
20228;BME280;12195;55.790;37.572;2023-02-04T02:31:35;99343.67;;;2.44;72.20
20228;BME280;12195;55.790;37.572;2023-02-04T02:34:08;99346.18;;;2.47;72.01
20228;BME280;12195;55.790;37.572;2023-02-04T02:36:40;99345.28;;;2.48;71.95
20228;BME280;12195;55.790;37.572;2023-02-04T02:39:12;99351.36;;;2.47;72.03
20228;BME280;12195;55.790;37.572;2023-02-04T02:41:44;99347.98;;;2.45;71.84
20228;BME280;12195;55.790;37.572;2023-02-04T02:44:17;99343.67;;;2.44;71.85
20228;BME280;12195;55.790;37.572;2023-02-04T02:46:49;99352.34;;;2.43;72.06
20228;BME280;12195;55.790;37.572;2023-02-04T02:49:22;99354.09;;;2.42;72.28
20228;BME280;12195;55.790;37.572;2023-02-04T02:51:54;99350.64;;;2.42;72.30
20228;BME280;12195;55.790;37.572;2023-02-04T02:54:31;99355.07;;;2.38;72.43
20228;BME280;12195;55.790;37.572;2023-02-04T02:57:16;99364.58;;;2.38;72.63
20228;BME280;12195;55.790;37.572;2023-02-04T02:59:49;99361.98;;;2.38;72.61
20228;BME280;12195;55.790;37.572;2023-02-04T03:02:22;99356.84;;;2.36;72.76
20228;BME280;12195;55.790;37.572;2023-02-04T03:04:57;99362.09;;;2.33;72.52
20228;BME280;12195;55.790;37.572;2023-02-04T03:07:32;99367.38;;;2.30;72.69
20228;BME280;12195;55.790;37.572;2023-02-04T03:10:05;99363.21;;;2.25;72.77
20228;BME280;12195;55.790;37.572;2023-02-04T03:12:37;99369.29;;;2.24;72.92
20228;BME280;12195;55.790;37.572;2023-02-04T03:15:10;99367.74;;;2.17;73.27
20228;BME280;12195;55.790;37.572;2023-02-04T03:17:42;99373.89;;;2.13;73.46
20228;BME280;12195;55.790;37.572;2023-02-04T03:20:15;99369.65;;;2.10;73.77
20228;BME280;12195;55.790;37.572;2023-02-04T03:22:48;99367.95;;;2.09;73.95
20228;BME280;12195;55.790;37.572;2023-02-04T03:25:20;99375.66;;;2.11;73.79
20228;BME280;12195;55.790;37.572;2023-02-04T03:28:00;99388.60;;;2.11;73.77
20228;BME280;12195;55.790;37.572;2023-02-04T03:30:26;99388.10;;;2.30;74.33
20228;BME280;12195;55.790;37.572;2023-02-04T03:32:59;99377.38;;;2.12;73.79
20228;BME280;12195;55.790;37.572;2023-02-04T03:35:31;99381.77;;;2.08;74.20
20228;BME280;12195;55.790;37.572;2023-02-04T03:38:03;99386.98;;;2.07;74.40
20228;BME280;12195;55.790;37.572;2023-02-04T03:40:35;99393.05;;;2.06;74.61
20228;BME280;12195;55.790;37.572;2023-02-04T03:43:07;99390.44;;;2.07;74.46
20228;BME280;12195;55.790;37.572;2023-02-04T03:45:39;99392.16;;;2.07;74.46
20228;BME280;12195;55.790;37.572;2023-02-04T03:48:13;99399.09;;;2.06;74.32
20228;BME280;12195;55.790;37.572;2023-02-04T03:50:45;99399.09;;;2.06;74.21
20228;BME280;12195;55.790;37.572;2023-02-04T03:53:18;99406.00;;;2.06;74.35
20228;BME280;12195;55.790;37.572;2023-02-04T03:55:52;99402.44;;;2.10;74.52
20228;BME280;12195;55.790;37.572;2023-02-04T03:58:24;99401.47;;;2.14;74.55
20228;BME280;12195;55.790;37.572;2023-02-04T04:00:57;99396.16;;;2.20;74.44
20228;BME280;12195;55.790;37.572;2023-02-04T04:03:29;99414.17;;;2.23;73.94
20228;BME280;12195;55.790;37.572;2023-02-04T04:06:02;99408.03;;;2.27;73.67
20228;BME280;12195;55.790;37.572;2023-02-04T04:08:36;99407.95;;;2.30;73.79
20228;BME280;12195;55.790;37.572;2023-02-04T04:11:09;99410.48;;;2.33;73.48
20228;BME280;12195;55.790;37.572;2023-02-04T04:13:41;99419.00;;;2.36;73.65
20228;BME280;12195;55.790;37.572;2023-02-04T04:16:13;99418.93;;;2.39;73.44
20228;BME280;12195;55.790;37.572;2023-02-04T04:18:45;99420.63;;;2.40;73.38
20228;BME280;12195;55.790;37.572;2023-02-04T04:21:17;99418.93;;;2.39;73.40
20228;BME280;12195;55.790;37.572;2023-02-04T04:23:50;99416.30;;;2.41;73.46
20228;BME280;12195;55.790;37.572;2023-02-04T04:26:23;99419.77;;;2.40;73.14
20228;BME280;12195;55.790;37.572;2023-02-04T04:28:56;99424.04;;;2.42;73.15
20228;BME280;12195;55.790;37.572;2023-02-04T04:31:28;99436.92;;;2.44;73.10
20228;BME280;12195;55.790;37.572;2023-02-04T04:34:00;99427.38;;;2.46;73.24
20228;BME280;12195;55.790;37.572;2023-02-04T04:36:33;99433.36;;;2.48;73.21
20228;BME280;12195;55.790;37.572;2023-02-04T04:39:05;99436.77;;;2.50;72.92
20228;BME280;12195;55.790;37.572;2023-02-04T04:41:37;99438.39;;;2.54;73.23
20228;BME280;12195;55.790;37.572;2023-02-04T04:44:09;99445.23;;;2.56;73.23
20228;BME280;12195;55.790;37.572;2023-02-04T04:46:41;99449.48;;;2.59;73.12
20228;BME280;12195;55.790;37.572;2023-02-04T04:49:14;99452.03;;;2.60;72.93
20228;BME280;12195;55.790;37.572;2023-02-04T04:51:47;99445.13;;;2.61;73.44
20228;BME280;12195;55.790;37.572;2023-02-04T04:54:19;99454.52;;;2.65;73.27
20228;BME280;12195;55.790;37.572;2023-02-04T04:56:51;99458.80;;;2.66;73.06
20228;BME280;12195;55.790;37.572;2023-02-04T04:59:23;99451.02;;;2.66;72.86
20228;BME280;12195;55.790;37.572;2023-02-04T05:01:56;99454.45;;;2.66;72.78
20228;BME280;12195;55.790;37.572;2023-02-04T05:04:28;99455.30;;;2.67;72.47
20228;BME280;12195;55.790;37.572;2023-02-04T05:07:00;99463.91;;;2.69;72.69
20228;BME280;12195;55.790;37.572;2023-02-04T05:09:32;99460.37;;;2.71;72.52
20228;BME280;12195;55.790;37.572;2023-02-04T05:12:05;99462.97;;;2.71;72.53
20228;BME280;12195;55.790;37.572;2023-02-04T05:14:37;99468.11;;;2.73;72.34
20228;BME280;12195;55.790;37.572;2023-02-04T05:17:10;99472.40;;;2.74;72.28
20228;BME280;12195;55.790;37.572;2023-02-04T05:19:43;99474.99;;;2.74;72.36
20228;BME280;12195;55.790;37.572;2023-02-04T05:22:16;99476.68;;;2.75;72.40
20228;BME280;12195;55.790;37.572;2023-02-04T05:24:48;99480.14;;;2.75;72.19
20228;BME280;12195;55.790;37.572;2023-02-04T05:27:20;99489.57;;;2.78;72.14
20228;BME280;12195;55.790;37.572;2023-02-04T05:29:53;99486.11;;;2.77;72.15
20228;BME280;12195;55.790;37.572;2023-02-04T05:32:25;99486.98;;;2.78;71.81
20228;BME280;12195;55.790;37.572;2023-02-04T05:34:58;99490.39;;;2.78;71.79
20228;BME280;12195;55.790;37.572;2023-02-04T05:37:31;99484.39;;;2.78;71.51
20228;BME280;12195;55.790;37.572;2023-02-04T05:40:04;99492.98;;;2.78;71.46
20228;BME280;12195;55.790;37.572;2023-02-04T05:42:36;99492.95;;;2.80;71.79
20228;BME280;12195;55.790;37.572;2023-02-04T05:45:14;99505.02;;;2.81;71.85
20228;BME280;12195;55.790;37.572;2023-02-04T05:47:46;99505.84;;;2.83;71.82
20228;BME280;12195;55.790;37.572;2023-02-04T05:50:19;99503.25;;;2.83;71.64
20228;BME280;12195;55.790;37.572;2023-02-04T05:52:51;99516.25;;;2.81;71.44
20228;BME280;12195;55.790;37.572;2023-02-04T05:55:23;99511.92;;;2.82;71.69
20228;BME280;12195;55.790;37.572;2023-02-04T05:57:55;99514.48;;;2.83;71.87
20228;BME280;12195;55.790;37.572;2023-02-04T06:00:27;99515.31;;;2.84;71.85
20228;BME280;12195;55.790;37.572;2023-02-04T06:03:00;99517.11;;;2.82;71.36
20228;BME280;12195;55.790;37.572;2023-02-04T06:05:33;99524.92;;;2.80;71.45
20228;BME280;12195;55.790;37.572;2023-02-04T06:08:05;99525.75;;;2.81;71.39
20228;BME280;12195;55.790;37.572;2023-02-04T06:10:38;99531.87;;;2.78;71.05
20228;BME280;12195;55.790;37.572;2023-02-04T06:13:10;99535.36;;;2.77;71.09
20228;BME280;12195;55.790;37.572;2023-02-04T06:15:43;99543.14;;;2.77;71.12
20228;BME280;12195;55.790;37.572;2023-02-04T06:18:15;99549.98;;;2.80;71.11
20228;BME280;12195;55.790;37.572;2023-02-04T06:20:47;99549.98;;;2.80;70.98
20228;BME280;12195;55.790;37.572;2023-02-04T06:23:19;99552.61;;;2.78;71.11
20228;BME280;12195;55.790;37.572;2023-02-04T06:25:52;99562.94;;;2.80;71.19
20228;BME280;12195;55.790;37.572;2023-02-04T06:28:25;99558.69;;;2.77;71.08
20228;BME280;12195;55.790;37.572;2023-02-04T06:30:57;99565.64;;;2.77;70.97
20228;BME280;12195;55.790;37.572;2023-02-04T06:33:29;99569.95;;;2.76;71.02
20228;BME280;12195;55.790;37.572;2023-02-04T06:36:02;99569.02;;;2.79;71.36
20228;BME280;12195;55.790;37.572;2023-02-04T06:38:35;99567.36;;;2.76;71.36
20228;BME280;12195;55.790;37.572;2023-02-04T06:41:08;99566.43;;;2.79;71.37
20228;BME280;12195;55.790;37.572;2023-02-04T06:43:41;99575.90;;;2.80;71.24
20228;BME280;12195;55.790;37.572;2023-02-04T06:46:14;99579.32;;;2.82;71.42
20228;BME280;12195;55.790;37.572;2023-02-04T06:48:46;99578.49;;;2.80;70.96
20228;BME280;12195;55.790;37.572;2023-02-04T06:51:18;99576.80;;;2.79;71.36
20228;BME280;12195;55.790;37.572;2023-02-04T06:53:50;99585.38;;;2.81;71.33
20228;BME280;12195;55.790;37.572;2023-02-04T06:56:24;99588.83;;;2.81;71.74
20228;BME280;12195;55.790;37.572;2023-02-04T06:58:59;99584.41;;;2.85;71.90
20228;BME280;12195;55.790;37.572;2023-02-04T07:01:33;99586.92;;;2.88;71.72
20228;BME280;12195;55.790;37.572;2023-02-04T07:04:04;99593.70;;;2.93;71.83
20228;BME280;12195;55.790;37.572;2023-02-04T07:06:37;99595.32;;;2.97;71.86
20228;BME280;12195;55.790;37.572;2023-02-04T07:09:09;99592.69;;;2.99;71.45
20228;BME280;12195;55.790;37.572;2023-02-04T07:11:41;99598.64;;;3.02;71.44
20228;BME280;12195;55.790;37.572;2023-02-04T07:14:14;99598.64;;;3.02;70.98
20228;BME280;12195;55.790;37.572;2023-02-04T07:16:48;99606.34;;;3.05;71.21
20228;BME280;12195;55.790;37.572;2023-02-04T07:19:21;99607.97;;;3.09;71.15
20228;BME280;12195;55.790;37.572;2023-02-04T07:21:53;99609.63;;;3.12;70.88
20228;BME280;12195;55.790;37.572;2023-02-04T07:24:27;99613.05;;;3.14;70.89
20228;BME280;12195;55.790;37.572;2023-02-04T07:26:59;99618.13;;;3.17;71.01
20228;BME280;12195;55.790;37.572;2023-02-04T07:29:32;99611.17;;;3.19;70.90
20228;BME280;12195;55.790;37.572;2023-02-04T07:32:05;99619.17;;;3.42;71.59
20228;BME280;12195;55.790;37.572;2023-02-04T07:34:37;99616.80;;;3.34;70.65
20228;BME280;12195;55.790;37.572;2023-02-04T07:37:09;99624.47;;;3.39;70.87
20228;BME280;12195;55.790;37.572;2023-02-04T07:39:43;99627.78;;;3.44;70.88
20228;BME280;12195;55.790;37.572;2023-02-04T07:42:16;99625.04;;;3.48;70.51
20228;BME280;12195;55.790;37.572;2023-02-04T07:44:50;99626.77;;;3.49;70.69
20228;BME280;12195;55.790;37.572;2023-02-04T07:47:22;99631.92;;;3.51;70.86
20228;BME280;12195;55.790;37.572;2023-02-04T07:49:55;99638.80;;;3.52;70.53
20228;BME280;12195;55.790;37.572;2023-02-04T07:52:27;99637.94;;;3.51;70.25
20228;BME280;12195;55.790;37.572;2023-02-04T07:54:59;99645.80;;;3.48;69.93
20228;BME280;12195;55.790;37.572;2023-02-04T07:57:32;99638.09;;;3.47;70.23
20228;BME280;12195;55.790;37.572;2023-02-04T08:00:05;99639.78;;;3.48;70.63
20228;BME280;12195;55.790;37.572;2023-02-04T08:02:42;99646.73;;;3.46;70.29
20228;BME280;12195;55.790;37.572;2023-02-04T08:05:15;99643.39;;;3.42;70.12
20228;BME280;12195;55.790;37.572;2023-02-04T08:07:47;99653.80;;;3.41;70.45
20228;BME280;12195;55.790;37.572;2023-02-04T08:10:19;99650.37;;;3.40;70.86
20228;BME280;12195;55.790;37.572;2023-02-04T08:12:53;99652.91;;;3.42;71.26
20228;BME280;12195;55.790;37.572;2023-02-04T08:15:26;99652.83;;;3.45;71.00
20228;BME280;12195;55.790;37.572;2023-02-04T08:17:58;99653.66;;;3.47;70.86
20228;BME280;12195;55.790;37.572;2023-02-04T08:20:31;99652.72;;;3.49;70.70
20228;BME280;12195;55.790;37.572;2023-02-04T08:23:03;99650.08;;;3.51;70.45
20228;BME280;12195;55.790;37.572;2023-02-04T08:25:37;99656.97;;;3.52;70.55
20228;BME280;12195;55.790;37.572;2023-02-04T08:28:10;99658.66;;;3.53;70.58
20228;BME280;12195;55.790;37.572;2023-02-04T08:30:45;99654.45;;;3.49;70.69
20228;BME280;12195;55.790;37.572;2023-02-04T08:33:21;99663.09;;;3.49;70.67
20228;BME280;12195;55.790;37.572;2023-02-04T08:35:53;99658.02;;;3.45;70.47
20228;BME280;12195;55.790;37.572;2023-02-04T08:38:26;99662.34;;;3.44;70.74
20228;BME280;12195;55.790;37.572;2023-02-04T08:40:58;99667.64;;;3.41;70.71
20228;BME280;12195;55.790;37.572;2023-02-04T08:43:31;99665.05;;;3.41;71.18
20228;BME280;12195;55.790;37.572;2023-02-04T08:46:04;99671.93;;;3.42;71.10
20228;BME280;12195;55.790;37.572;2023-02-04T08:48:37;99664.11;;;3.44;71.41
20228;BME280;12195;55.790;37.572;2023-02-04T08:51:09;99677.05;;;3.45;70.97
20228;BME280;12195;55.790;37.572;2023-02-04T08:53:42;99675.93;;;3.54;71.25
20228;BME280;12195;55.790;37.572;2023-02-04T08:56:15;99677.52;;;3.59;71.00
20228;BME280;12195;55.790;37.572;2023-02-04T08:58:49;99674.66;;;3.68;71.04
20228;BME280;12195;55.790;37.572;2023-02-04T09:01:24;99676.16;;;3.77;70.28
20228;BME280;12195;55.790;37.572;2023-02-04T09:03:57;99677.59;;;3.87;70.29
20228;BME280;12195;55.790;37.572;2023-02-04T09:06:30;99677.36;;;3.96;70.22
20228;BME280;12195;55.790;37.572;2023-02-04T09:09:02;99681.37;;;4.06;70.10
20228;BME280;12195;55.790;37.572;2023-02-04T09:11:35;99679.41;;;4.14;69.22
20228;BME280;12195;55.790;37.572;2023-02-04T09:14:07;99680.00;;;4.23;69.06
20228;BME280;12195;55.790;37.572;2023-02-04T09:16:40;99673.66;;;4.32;69.07
20228;BME280;12195;55.790;37.572;2023-02-04T09:19:13;99683.88;;;4.38;69.15
20228;BME280;12195;55.790;37.572;2023-02-04T09:21:46;99682.86;;;4.43;68.60
20228;BME280;12195;55.790;37.572;2023-02-04T09:24:18;99688.80;;;4.47;68.24
20228;BME280;12195;55.790;37.572;2023-02-04T09:26:53;99689.75;;;4.44;67.79
20228;BME280;12195;55.790;37.572;2023-02-04T09:29:25;99697.59;;;4.43;68.16
20228;BME280;12195;55.790;37.572;2023-02-04T09:31:57;99690.86;;;4.36;68.04
20228;BME280;12195;55.790;37.572;2023-02-04T09:34:29;99692.83;;;4.28;67.95
20228;BME280;12195;55.790;37.572;2023-02-04T09:37:01;99697.33;;;4.23;68.13
20228;BME280;12195;55.790;37.572;2023-02-04T09:39:34;99694.88;;;4.18;68.51
20228;BME280;12195;55.790;37.572;2023-02-04T09:42:08;99701.06;;;4.14;68.58
20228;BME280;12195;55.790;37.572;2023-02-04T09:44:40;99706.33;;;4.11;68.82
20228;BME280;12195;55.790;37.572;2023-02-04T09:47:14;99702.08;;;4.09;69.08
20228;BME280;12195;55.790;37.572;2023-02-04T09:49:46;99713.55;;;4.31;69.61
20228;BME280;12195;55.790;37.572;2023-02-04T09:52:19;99715.07;;;4.09;68.61
20228;BME280;12195;55.790;37.572;2023-02-04T09:54:54;99720.34;;;4.06;69.38
20228;BME280;12195;55.790;37.572;2023-02-04T09:57:27;99717.75;;;4.06;69.64
20228;BME280;12195;55.790;37.572;2023-02-04T10:00:00;99716.05;;;4.05;69.39
20228;BME280;12195;55.790;37.572;2023-02-04T10:02:34;99722.15;;;4.04;68.82
20228;BME280;12195;55.790;37.572;2023-02-04T10:05:08;99717.86;;;4.01;68.48
20228;BME280;12195;55.790;37.572;2023-02-04T10:07:42;99719.66;;;3.99;68.52
20228;BME280;12195;55.790;37.572;2023-02-04T10:10:18;99719.03;;;3.91;68.69
20228;BME280;12195;55.790;37.572;2023-02-04T10:12:55;99726.10;;;3.86;69.00
20228;BME280;12195;55.790;37.572;2023-02-04T10:15:28;99730.51;;;3.83;69.48
20228;BME280;12195;55.790;37.572;2023-02-04T10:18:03;99726.22;;;3.82;69.37
20228;BME280;12195;55.790;37.572;2023-02-04T10:20:37;99727.12;;;3.81;69.05
20228;BME280;12195;55.790;37.572;2023-02-04T10:23:10;99726.22;;;3.82;69.39
20228;BME280;12195;55.790;37.572;2023-02-04T10:25:43;99726.14;;;3.85;69.67
20228;BME280;12195;55.790;37.572;2023-02-04T10:28:15;99731.97;;;3.93;69.93
20228;BME280;12195;55.790;37.572;2023-02-04T10:30:48;99734.31;;;4.02;69.49
20228;BME280;12195;55.790;37.572;2023-02-04T10:33:24;99737.51;;;4.11;69.13
20228;BME280;12195;55.790;37.572;2023-02-04T10:35:56;99738.06;;;4.22;68.45
20228;BME280;12195;55.790;37.572;2023-02-04T10:38:28;99736.84;;;4.34;68.22
20228;BME280;12195;55.790;37.572;2023-02-04T10:41:02;99745.98;;;4.47;67.62
20228;BME280;12195;55.790;37.572;2023-02-04T10:43:36;99742.03;;;4.63;67.71
20228;BME280;12195;55.790;37.572;2023-02-04T10:46:09;99744.02;;;4.82;67.15
20228;BME280;12195;55.790;37.572;2023-02-04T10:48:41;99748.54;;;5.03;66.57
20228;BME280;12195;55.790;37.572;2023-02-04T10:51:13;99753.13;;;5.23;65.03
20228;BME280;12195;55.790;37.572;2023-02-04T10:53:47;99759.59;;;5.37;62.55
20228;BME280;12195;55.790;37.572;2023-02-04T10:56:37;99761.70;;;5.51;59.90
20228;BME280;12195;55.790;37.572;2023-02-04T10:59:16;99754.20;;;5.68;59.43
20228;BME280;12195;55.790;37.572;2023-02-04T11:01:45;99754.20;;;5.68;59.43
20228;BME280;12195;55.790;37.572;2023-02-04T11:04:18;99758.45;;;5.70;59.25
20228;BME280;12195;55.790;37.572;2023-02-04T11:06:51;99766.22;;;5.72;59.45
20228;BME280;12195;55.790;37.572;2023-02-04T11:09:24;99766.22;;;5.72;59.85
20228;BME280;12195;55.790;37.572;2023-02-04T11:11:57;99770.66;;;5.68;59.25
20228;BME280;12195;55.790;37.572;2023-02-04T11:14:30;99769.06;;;5.64;59.77
20228;BME280;12195;55.790;37.572;2023-02-04T11:17:03;99769.11;;;5.63;59.66
20228;BME280;12195;55.790;37.572;2023-02-04T11:19:37;99767.52;;;5.59;59.82
20228;BME280;12195;55.790;37.572;2023-02-04T11:22:22;99776.33;;;5.55;60.00
20228;BME280;12195;55.790;37.572;2023-02-04T11:24:55;99783.49;;;5.48;60.06
20228;BME280;12195;55.790;37.572;2023-02-04T11:27:38;99782.84;;;5.42;61.73
20228;BME280;12195;55.790;37.572;2023-02-04T11:30:21;99789.22;;;5.33;60.73
20228;BME280;12195;55.790;37.572;2023-02-04T11:33:04;99781.84;;;5.20;61.53
20228;BME280;12195;55.790;37.572;2023-02-04T11:35:37;99791.16;;;4.99;61.43
20228;BME280;12195;55.790;37.572;2023-02-04T11:38:24;99788.39;;;4.78;62.32
20228;BME280;12195;55.790;37.572;2023-02-04T11:40:58;99793.17;;;4.62;62.47
20228;BME280;12195;55.790;37.572;2023-02-04T11:43:34;99792.58;;;4.53;62.79
20228;BME280;12195;55.790;37.572;2023-02-04T11:46:12;99796.28;;;4.46;63.00
20228;BME280;12195;55.790;37.572;2023-02-04T11:48:45;99804.23;;;4.40;63.12
20228;BME280;12195;55.790;37.572;2023-02-04T11:51:20;99806.98;;;4.35;63.37
20228;BME280;12195;55.790;37.572;2023-02-04T11:53:52;99812.22;;;4.34;63.96
20228;BME280;12195;55.790;37.572;2023-02-04T11:56:28;99813.16;;;4.31;64.30
20228;BME280;12195;55.790;37.572;2023-02-04T11:59:01;99813.98;;;4.32;64.88
20228;BME280;12195;55.790;37.572;2023-02-04T12:01:34;99813.98;;;4.32;64.57
20228;BME280;12195;55.790;37.572;2023-02-04T12:04:22;99820.02;;;4.34;64.83
20228;BME280;12195;55.790;37.572;2023-02-04T12:06:43;99821.70;;;4.35;64.83
20228;BME280;12195;55.790;37.572;2023-02-04T12:11:53;99830.97;;;4.45;65.23
20228;BME280;12195;55.790;37.572;2023-02-04T12:14:35;99827.36;;;4.49;65.06
20228;BME280;12195;55.790;37.572;2023-02-04T12:17:18;99828.19;;;4.51;64.23
20228;BME280;12195;55.790;37.572;2023-02-04T12:19:51;99840.28;;;4.52;64.22
20228;BME280;12195;55.790;37.572;2023-02-04T12:22:23;99841.22;;;4.49;64.31
20228;BME280;12195;55.790;37.572;2023-02-04T12:24:56;99843.10;;;4.44;64.91
20228;BME280;12195;55.790;37.572;2023-02-04T12:27:31;99843.22;;;4.40;64.55
20228;BME280;12195;55.790;37.572;2023-02-04T12:30:03;99839.83;;;4.38;65.00
20228;BME280;12195;55.790;37.572;2023-02-04T12:32:36;99839.94;;;4.33;64.77
20228;BME280;12195;55.790;37.572;2023-02-04T12:35:09;99848.64;;;4.32;65.62
20228;BME280;12195;55.790;37.572;2023-02-04T12:37:42;99855.56;;;4.32;65.37
20228;BME280;12195;55.790;37.572;2023-02-04T12:40:19;99856.50;;;4.29;65.11
20228;BME280;12195;55.790;37.572;2023-02-04T12:42:52;99857.52;;;4.24;64.54
20228;BME280;12195;55.790;37.572;2023-02-04T12:45:25;99862.06;;;4.16;64.80
20228;BME280;12195;55.790;37.572;2023-02-04T12:47:58;99860.55;;;4.09;64.75
20228;BME280;12195;55.790;37.572;2023-02-04T12:50:30;99866.72;;;4.05;65.25
20228;BME280;12195;55.790;37.572;2023-02-04T12:53:02;99874.64;;;3.99;65.94
20228;BME280;12195;55.790;37.572;2023-02-04T12:55:37;99875.61;;;3.95;66.50
20228;BME280;12195;55.790;37.572;2023-02-04T12:58:09;99878.24;;;3.93;66.41
20228;BME280;12195;55.790;37.572;2023-02-04T13:00:42;99886.03;;;3.93;66.60
20228;BME280;12195;55.790;37.572;2023-02-04T13:03:14;99881.05;;;3.86;67.07
20228;BME280;12195;55.790;37.572;2023-02-04T13:05:47;99889.80;;;3.82;66.85
20228;BME280;12195;55.790;37.572;2023-02-04T13:08:19;99896.80;;;3.80;67.17
20228;BME280;12195;55.790;37.572;2023-02-04T13:10:52;99894.23;;;3.78;67.28
20228;BME280;12195;55.790;37.572;2023-02-04T13:13:24;99889.06;;;3.77;67.07
20228;BME280;12195;55.790;37.572;2023-02-04T13:15:56;99892.59;;;3.74;67.07
20228;BME280;12195;55.790;37.572;2023-02-04T13:18:29;99899.52;;;3.74;66.88
20228;BME280;12195;55.790;37.572;2023-02-04T13:21:02;99903.91;;;3.72;66.52
20228;BME280;12195;55.790;37.572;2023-02-04T13:23:35;99898.72;;;3.72;66.95
20228;BME280;12195;55.790;37.572;2023-02-04T13:26:07;99898.75;;;3.70;66.93
20228;BME280;12195;55.790;37.572;2023-02-04T13:28:42;99901.31;;;3.72;67.59
20228;BME280;12195;55.790;37.572;2023-02-04T13:31:14;99907.38;;;3.71;66.80
20228;BME280;12195;55.790;37.572;2023-02-04T13:33:47;99909.20;;;3.67;66.03